createdAt,value
2019-02-10T00:02:03.780Z,5.51
2019-02-10T00:04:32.881Z,5.42
2019-02-10T00:07:01.989Z,5.35
2019-02-10T00:09:31.057Z,5.30
2019-02-10T00:12:00.163Z,5.25
2019-02-10T00:14:29.238Z,5.30
2019-02-10T00:16:58.343Z,5.38
2019-02-10T00:19:27.419Z,5.39
2019-02-10T00:21:56.519Z,5.42
2019-02-10T00:24:25.627Z,5.29
2019-02-10T00:26:54.722Z,5.31
2019-02-10T00:29:23.813Z,5.38
2019-02-10T00:31:52.905Z,5.41
2019-02-10T00:34:21.985Z,5.46
2019-02-10T00:36:51.081Z,5.47
2019-02-10T00:39:20.153Z,5.50
2019-02-10T00:41:49.224Z,5.52
2019-02-10T00:44:18.335Z,5.45
2019-02-10T00:46:47.409Z,5.48
2019-02-10T00:49:16.506Z,5.38
2019-02-10T00:51:45.587Z,5.43
2019-02-10T00:54:14.680Z,5.42
2019-02-10T00:56:43.753Z,5.42
2019-02-10T00:59:12.859Z,5.41
2019-02-10T01:01:41.938Z,5.37
2019-02-10T01:04:11.072Z,5.36
2019-02-10T01:06:41.722Z,5.43
2019-02-10T01:09:10.910Z,5.41
2019-02-10T01:11:39.992Z,5.37
2019-02-10T01:14:09.102Z,5.36
2019-02-10T01:16:38.194Z,5.40
2019-02-10T01:19:13.216Z,5.36
2019-02-10T01:21:46.529Z,5.35
2019-02-10T01:24:15.632Z,5.31
2019-02-10T01:26:44.714Z,5.36
2019-02-10T01:29:13.865Z,5.44
2019-02-10T01:31:42.982Z,5.43
2019-02-10T01:34:12.053Z,5.38
2019-02-10T01:36:49.166Z,5.33
2019-02-10T01:39:19.776Z,5.31
2019-02-10T01:41:48.882Z,5.15
2019-02-10T01:44:18.243Z,5.04
2019-02-10T01:46:47.351Z,5.01
2019-02-10T01:49:16.432Z,4.97
2019-02-10T01:51:45.541Z,5.00
2019-02-10T01:54:14.627Z,4.99
2019-02-10T01:56:43.734Z,4.93
2019-02-10T01:59:12.809Z,4.91
2019-02-10T02:01:41.920Z,4.96
2019-02-10T02:04:11.037Z,4.97
2019-02-10T02:06:40.148Z,5.00
2019-02-10T02:09:12.282Z,5.06
2019-02-10T02:11:41.483Z,5.09
2019-02-10T02:14:10.558Z,5.08
2019-02-10T02:16:39.667Z,5.10
2019-02-10T02:19:08.750Z,5.14
2019-02-10T02:21:37.845Z,5.13
2019-02-10T02:24:06.931Z,5.17
2019-02-10T02:26:36.025Z,5.20
2019-02-10T02:29:05.118Z,5.09
2019-02-10T02:31:34.218Z,5.17
2019-02-10T02:34:03.308Z,5.13
2019-02-10T02:36:34.054Z,5.21
2019-02-10T02:39:04.307Z,5.23
2019-02-10T02:41:33.413Z,5.04
2019-02-10T02:44:02.498Z,5.11
2019-02-10T02:46:31.602Z,5.03
2019-02-10T02:49:00.679Z,4.96
2019-02-10T02:51:29.807Z,4.91
2019-02-10T02:53:58.864Z,4.88
2019-02-10T02:56:27.936Z,4.86
2019-02-10T02:58:57.036Z,4.77
2019-02-10T03:01:26.132Z,4.65
2019-02-10T03:03:55.247Z,4.70
2019-02-10T03:06:25.961Z,4.67
2019-02-10T03:08:55.067Z,4.63
2019-02-10T03:11:24.142Z,4.62
2019-02-10T03:13:53.243Z,4.53
2019-02-10T03:16:22.331Z,4.53
2019-02-10T03:18:53.222Z,4.53
2019-02-10T03:21:22.254Z,4.54
2019-02-10T03:23:51.345Z,4.59
2019-02-10T03:26:20.421Z,4.59
2019-02-10T03:28:49.513Z,4.56
2019-02-10T03:31:18.586Z,4.58
2019-02-10T03:33:47.707Z,4.52
2019-02-10T03:36:16.781Z,4.52
2019-02-10T03:38:45.894Z,4.54
2019-02-10T03:41:14.974Z,4.64
2019-02-10T03:43:44.084Z,4.66
2019-02-10T03:46:13.165Z,4.65
2019-02-10T03:48:42.269Z,4.73
2019-02-10T03:51:11.357Z,4.89
2019-02-10T03:53:40.455Z,4.82
2019-02-10T03:56:09.540Z,4.78
2019-02-10T03:58:38.638Z,4.80
2019-02-10T04:01:07.731Z,4.88
2019-02-10T04:03:36.861Z,4.90
2019-02-10T04:06:05.941Z,4.87
2019-02-10T04:08:35.045Z,4.87
2019-02-10T04:11:04.127Z,4.84
2019-02-10T04:13:33.236Z,4.79
2019-02-10T04:16:02.322Z,4.76
2019-02-10T04:18:31.423Z,4.81
2019-02-10T04:21:00.503Z,4.81
2019-02-10T04:23:29.611Z,4.80
2019-02-10T04:25:58.703Z,4.85
2019-02-10T04:28:27.806Z,4.91
2019-02-10T04:30:56.882Z,4.88
2019-02-10T04:33:25.983Z,5.02
2019-02-10T04:35:55.066Z,5.07
2019-02-10T04:38:24.180Z,5.11
2019-02-10T04:40:53.340Z,5.03
2019-02-10T04:43:22.415Z,5.14
2019-02-10T04:45:51.520Z,5.17
2019-02-10T04:48:20.596Z,5.14
2019-02-10T04:50:49.694Z,5.29
2019-02-10T04:53:18.795Z,5.25
2019-02-10T04:56:11.507Z,5.17
2019-02-10T04:58:40.591Z,5.25
2019-02-10T05:01:09.702Z,5.26
2019-02-10T05:03:39.293Z,5.24
2019-02-10T05:06:08.393Z,5.28
2019-02-10T05:08:37.472Z,5.23
2019-02-10T05:11:06.571Z,5.26
2019-02-10T05:13:35.662Z,5.28
2019-02-10T05:16:04.783Z,5.35
2019-02-10T05:18:33.838Z,5.35
2019-02-10T05:21:02.943Z,5.37
2019-02-10T05:23:32.036Z,5.34
2019-02-10T05:26:01.158Z,5.41
2019-02-10T05:28:30.201Z,5.40
2019-02-10T05:30:59.307Z,5.43
2019-02-10T05:33:28.384Z,5.57
2019-02-10T05:35:57.509Z,5.59
2019-02-10T05:38:26.592Z,5.61
2019-02-10T05:40:55.699Z,5.67
2019-02-10T05:43:24.774Z,5.68
2019-02-10T05:45:53.872Z,5.74
2019-02-10T05:48:22.947Z,5.83
2019-02-10T05:50:52.056Z,5.82
2019-02-10T05:53:21.143Z,5.99
2019-02-10T05:55:50.249Z,6.11
2019-02-10T05:58:19.321Z,6.06
2019-02-10T06:00:48.447Z,6.08
2019-02-10T06:03:17.560Z,6.09
2019-02-10T06:05:46.670Z,6.11
2019-02-10T06:08:15.749Z,6.14
2019-02-10T06:10:44.855Z,6.11
2019-02-10T06:13:13.929Z,6.07
2019-02-10T06:15:43.035Z,6.03
2019-02-10T06:18:12.110Z,6.11
2019-02-10T06:20:41.219Z,6.16
2019-02-10T06:23:10.298Z,6.22
2019-02-10T06:25:39.419Z,6.25
2019-02-10T06:28:08.487Z,6.28
2019-02-10T06:30:37.582Z,6.28
2019-02-10T06:33:06.667Z,6.25
2019-02-10T06:35:35.751Z,6.29
2019-02-10T06:38:04.855Z,6.33
2019-02-10T06:40:33.959Z,6.39
2019-02-10T06:43:03.038Z,6.28
2019-02-10T06:45:32.130Z,6.28
2019-02-10T06:48:01.237Z,6.31
2019-02-10T06:50:30.320Z,6.40
2019-02-10T06:52:59.418Z,6.43
2019-02-10T06:55:28.502Z,6.42
2019-02-10T06:57:57.613Z,6.44
2019-02-10T07:00:37.693Z,6.40
2019-02-10T07:03:39.099Z,6.58
2019-02-10T07:06:08.578Z,6.51
2019-02-10T07:08:37.693Z,6.50
2019-02-10T07:11:06.770Z,6.53
2019-02-10T07:13:40.875Z,6.46
2019-02-10T07:16:54.164Z,6.56
2019-02-10T07:20:12.302Z,6.59
2019-02-10T07:23:25.349Z,6.57
2019-02-10T07:25:56.217Z,6.52
2019-02-10T07:29:01.485Z,6.44
2019-02-10T07:31:33.858Z,6.43
2019-02-10T07:34:59.064Z,6.50
2019-02-10T07:37:45.707Z,6.50
2019-02-10T07:40:49.394Z,6.45
2019-02-10T07:44:02.367Z,6.40
2019-02-10T07:47:21.254Z,6.46
2019-02-10T07:50:17.703Z,6.55
2019-02-10T07:53:26.288Z,6.64
2019-02-10T07:56:26.262Z,6.66
2019-02-10T07:59:20.502Z,6.73
2019-02-10T08:02:42.619Z,6.78
2019-02-10T08:05:30.760Z,6.82
2019-02-10T08:08:37.157Z,6.90
2019-02-10T08:11:48.624Z,6.97
2019-02-10T08:14:48.458Z,7.06
2019-02-10T08:17:49.737Z,7.04
2019-02-10T08:20:49.898Z,7.08
2019-02-10T08:23:47.206Z,7.14
2019-02-10T08:27:27.223Z,7.17
2019-02-10T08:30:18.566Z,7.18
2019-02-10T08:33:12.513Z,7.14
2019-02-10T08:36:15.665Z,7.18
2019-02-10T08:39:18.096Z,7.19
2019-02-10T08:42:37.252Z,7.25
2019-02-10T08:45:25.584Z,7.24
2019-02-10T08:48:36.999Z,7.24
2019-02-10T08:51:42.686Z,7.29
2019-02-10T08:54:12.393Z,7.29
2019-02-10T08:56:41.475Z,7.33
2019-02-10T08:59:10.574Z,7.29
2019-02-10T09:01:39.673Z,7.29
2019-02-10T09:04:08.800Z,7.29
2019-02-10T09:06:37.879Z,7.32
2019-02-10T09:09:08.616Z,7.26
2019-02-10T09:11:37.768Z,7.25
2019-02-10T09:14:06.893Z,7.23
2019-02-10T09:16:35.972Z,7.30
2019-02-10T09:19:05.132Z,7.43
2019-02-10T09:21:34.211Z,7.41
2019-02-10T09:24:03.319Z,7.33
2019-02-10T09:26:32.401Z,7.37
2019-02-10T09:29:01.537Z,7.38
2019-02-10T09:31:30.623Z,7.46
2019-02-10T09:33:59.716Z,7.32
2019-02-10T09:36:28.802Z,7.40
2019-02-10T09:38:57.901Z,7.35
2019-02-10T09:41:26.984Z,7.39
2019-02-10T09:43:56.098Z,7.52
2019-02-10T09:46:25.310Z,7.50
2019-02-10T09:48:54.453Z,7.50
2019-02-10T09:51:23.541Z,7.47
2019-02-10T09:53:52.636Z,7.42
2019-02-10T09:56:40.825Z,7.49
2019-02-10T09:59:09.904Z,7.45
2019-02-10T10:01:39.004Z,7.45
2019-02-10T10:04:08.111Z,7.37
2019-02-10T10:06:37.208Z,7.32
2019-02-10T10:09:07.135Z,7.29
2019-02-10T10:11:36.236Z,7.26
2019-02-10T10:14:05.326Z,7.31
2019-02-10T10:16:34.428Z,7.33
2019-02-10T10:19:03.523Z,7.34
2019-02-10T10:21:32.639Z,7.31
2019-02-10T10:24:01.743Z,7.32
2019-02-10T10:26:30.851Z,7.29
2019-02-10T10:28:59.937Z,7.38
2019-02-10T10:31:29.221Z,7.32
2019-02-10T10:33:58.460Z,7.28
2019-02-10T10:36:27.551Z,7.25
2019-02-10T10:38:56.653Z,7.27
2019-02-10T10:41:25.799Z,7.29
2019-02-10T10:43:54.910Z,7.31
2019-02-10T10:46:24.064Z,7.29
2019-02-10T10:48:53.150Z,7.33
2019-02-10T10:51:22.285Z,7.37
2019-02-10T10:53:51.386Z,7.39
2019-02-10T10:56:20.511Z,7.34
2019-02-10T10:58:49.637Z,7.34
2019-02-10T11:01:25.201Z,7.36
2019-02-10T11:03:49.588Z,7.43
2019-02-10T11:06:18.703Z,7.33
2019-02-10T11:08:47.816Z,7.34
2019-02-10T11:11:16.956Z,7.31
2019-02-10T11:13:46.043Z,7.29
2019-02-10T11:16:15.175Z,7.28
2019-02-10T11:18:44.259Z,7.29
2019-02-10T11:21:13.734Z,7.31
2019-02-10T11:23:42.852Z,7.33
2019-02-10T11:26:12.002Z,7.34
2019-02-10T11:28:41.273Z,7.32
2019-02-10T11:31:10.360Z,7.40
2019-02-10T11:33:39.472Z,7.34
2019-02-10T11:36:08.634Z,7.39
2019-02-10T11:38:37.742Z,7.40
2019-02-10T11:41:06.833Z,7.45
2019-02-10T11:43:35.943Z,7.39
2019-02-10T11:46:05.037Z,7.45
2019-02-10T11:48:34.146Z,7.44
2019-02-10T11:51:03.238Z,7.48
2019-02-10T11:53:32.333Z,7.50
2019-02-10T11:56:01.404Z,7.53
2019-02-10T11:58:30.511Z,7.57
2019-02-10T12:00:59.816Z,7.62
2019-02-10T12:03:28.941Z,7.66
2019-02-10T12:05:58.212Z,7.78
2019-02-10T12:08:35.386Z,7.71
2019-02-10T12:10:58.145Z,7.67
2019-02-10T12:13:27.359Z,7.65
2019-02-10T12:15:56.809Z,7.60
2019-02-10T12:18:25.948Z,7.52
2019-02-10T12:20:55.087Z,7.47
2019-02-10T12:23:24.377Z,7.40
2019-02-10T12:25:53.478Z,7.41
2019-02-10T12:28:22.605Z,7.38
2019-02-10T12:30:51.758Z,7.32
2019-02-10T12:33:20.925Z,7.39
2019-02-10T12:35:57.986Z,7.35
2019-02-10T12:38:20.960Z,7.44
2019-02-10T12:40:50.055Z,7.49
2019-02-10T12:43:19.181Z,7.56
2019-02-10T12:45:48.286Z,7.65
2019-02-10T12:48:17.422Z,7.57
2019-02-10T12:50:46.520Z,7.64
2019-02-10T12:53:15.649Z,7.58
2019-02-10T12:55:44.819Z,7.59
2019-02-10T12:58:13.924Z,7.73
2019-02-10T13:00:43.008Z,7.79
2019-02-10T13:03:12.118Z,7.93
2019-02-10T13:05:41.267Z,7.75
2019-02-10T13:08:10.376Z,7.64
2019-02-10T13:10:39.463Z,7.66
2019-02-10T13:13:08.545Z,7.40
2019-02-10T13:15:37.664Z,7.38
2019-02-10T13:18:06.771Z,7.28
2019-02-10T13:20:35.932Z,7.15
2019-02-10T13:23:05.014Z,7.16
2019-02-10T13:25:34.113Z,7.03
2019-02-10T13:28:03.234Z,7.00
2019-02-10T13:30:33.800Z,6.85
2019-02-10T13:33:02.990Z,6.91
2019-02-10T13:35:32.124Z,6.80
2019-02-10T13:38:01.219Z,6.81
2019-02-10T13:40:30.340Z,6.75
2019-02-10T13:42:59.436Z,6.71
2019-02-10T13:45:28.516Z,6.68
2019-02-10T13:47:57.620Z,6.59
2019-02-10T13:50:26.759Z,6.52
2019-02-10T13:52:55.866Z,6.42
2019-02-10T13:55:25.004Z,6.28
2019-02-10T13:57:54.105Z,6.27
2019-02-10T14:00:23.247Z,6.35
2019-02-10T14:02:52.354Z,6.40
2019-02-10T14:05:21.504Z,6.33
2019-02-10T14:07:51.192Z,6.29
2019-02-10T14:10:25.712Z,6.31
2019-02-10T14:12:51.237Z,6.34
2019-02-10T14:15:20.448Z,6.39
2019-02-10T14:17:49.553Z,6.55
2019-02-10T14:20:18.709Z,6.57
2019-02-10T14:22:47.814Z,6.49
2019-02-10T14:25:17.369Z,6.57
2019-02-10T14:27:46.519Z,6.65
2019-02-10T14:30:17.048Z,6.60
2019-02-10T14:32:46.308Z,6.34
2019-02-10T14:35:15.444Z,6.26
2019-02-10T14:37:44.526Z,6.20
2019-02-10T14:40:13.629Z,6.40
2019-02-10T14:42:42.712Z,6.40
2019-02-10T14:45:12.976Z,6.34
2019-02-10T14:47:42.058Z,6.36
2019-02-10T14:50:12.670Z,6.28
2019-02-10T14:52:41.762Z,6.24
2019-02-10T14:55:10.871Z,6.15
2019-02-10T14:57:39.956Z,6.08
2019-02-10T15:00:11.218Z,6.13
2019-02-10T15:02:40.310Z,6.07
2019-02-10T15:05:09.460Z,5.98
2019-02-10T15:07:38.547Z,5.95
2019-02-10T15:10:11.844Z,5.86
2019-02-10T15:12:40.793Z,5.92
2019-02-10T15:15:11.390Z,5.76
2019-02-10T15:17:40.517Z,5.71
2019-02-10T15:20:09.744Z,5.71
2019-02-10T15:22:38.825Z,5.72
2019-02-10T15:25:08.506Z,5.71
2019-02-10T15:27:37.715Z,5.80
2019-02-10T15:30:07.867Z,5.76
2019-02-10T15:32:36.969Z,5.74
2019-02-10T15:35:06.257Z,5.70
2019-02-10T15:37:35.369Z,5.72
2019-02-10T15:40:04.784Z,5.66
2019-02-10T15:42:33.891Z,5.64
2019-02-10T15:45:02.970Z,5.65
2019-02-10T15:47:32.069Z,5.67
2019-02-10T15:50:01.157Z,5.64
2019-02-10T15:52:30.258Z,5.56
2019-02-10T15:54:59.344Z,5.64
2019-02-10T15:57:28.477Z,5.69
2019-02-10T15:59:57.599Z,5.66
2019-02-10T16:02:26.719Z,5.67
2019-02-10T16:04:55.828Z,5.52
2019-02-10T16:07:24.939Z,5.52
2019-02-10T16:09:54.034Z,5.61
2019-02-10T16:12:23.140Z,5.59
2019-02-10T16:14:52.217Z,5.52
2019-02-10T16:17:21.364Z,5.52
2019-02-10T16:19:50.741Z,5.53
2019-02-10T16:22:21.487Z,5.50
2019-02-10T16:24:50.572Z,5.47
2019-02-10T16:27:19.673Z,5.35
2019-02-10T16:29:48.879Z,5.27
2019-02-10T16:32:17.974Z,5.17
2019-02-10T16:34:47.044Z,5.15
2019-02-10T16:37:16.144Z,5.12
2019-02-10T16:39:45.241Z,5.08
2019-02-10T16:42:14.346Z,5.04
2019-02-10T16:44:43.438Z,5.00
2019-02-10T16:47:12.546Z,4.95
2019-02-10T16:49:41.660Z,4.74
2019-02-10T16:52:10.782Z,4.60
2019-02-10T16:54:39.885Z,4.55
2019-02-10T16:57:08.994Z,4.50
2019-02-10T16:59:38.108Z,4.43
2019-02-10T17:02:07.221Z,4.40
2019-02-10T17:04:36.607Z,4.37
2019-02-10T17:07:05.715Z,4.34
2019-02-10T17:09:34.920Z,4.31
2019-02-10T17:12:04.041Z,4.30
2019-02-10T17:14:33.214Z,4.28
2019-02-10T17:17:02.316Z,4.27
2019-02-10T17:19:31.410Z,4.22
2019-02-10T17:22:00.620Z,4.23
2019-02-10T17:24:29.779Z,4.18
2019-02-10T17:26:58.865Z,4.15
2019-02-10T17:29:28.778Z,4.14
2019-02-10T17:31:57.887Z,4.08
2019-02-10T17:34:26.974Z,4.06
2019-02-10T17:36:56.082Z,4.05
2019-02-10T17:39:25.491Z,3.98
2019-02-10T17:41:54.622Z,3.84
2019-02-10T17:44:23.755Z,3.78
2019-02-10T17:46:52.867Z,3.76
2019-02-10T17:49:21.964Z,3.77
2019-02-10T17:51:51.075Z,3.73
2019-02-10T17:54:20.192Z,3.80
2019-02-10T17:56:49.288Z,3.78
2019-02-10T17:59:18.410Z,3.82
2019-02-10T18:01:47.649Z,3.83
2019-02-10T18:04:16.783Z,3.86
2019-02-10T18:06:45.871Z,3.85
2019-02-10T18:09:14.983Z,3.94
2019-02-10T18:11:44.050Z,3.92
2019-02-10T18:14:36.356Z,3.95
2019-02-10T18:17:22.822Z,3.97
2019-02-10T18:20:01.324Z,4.03
2019-02-10T18:22:52.538Z,4.06
2019-02-10T18:25:34.237Z,4.05
2019-02-10T18:28:20.800Z,4.11
2019-02-10T18:31:06.918Z,4.14
2019-02-10T18:33:50.605Z,4.21
2019-02-10T18:36:38.689Z,4.17
2019-02-10T18:39:25.106Z,4.17
2019-02-10T18:42:20.916Z,4.21
2019-02-10T18:44:53.253Z,4.21
2019-02-10T18:47:34.938Z,4.27
2019-02-10T18:50:13.828Z,4.28
2019-02-10T18:53:02.055Z,4.28
2019-02-10T18:55:53.232Z,4.28
2019-02-10T18:58:39.654Z,4.30
2019-02-10T19:01:26.420Z,4.31
2019-02-10T19:04:01.221Z,4.32
2019-02-10T19:06:52.356Z,4.32
2019-02-10T19:09:41.182Z,4.31
2019-02-10T19:12:32.267Z,4.26
2019-02-10T19:15:27.604Z,4.22
2019-02-10T19:18:12.249Z,4.21
2019-02-10T19:20:55.868Z,4.17
2019-02-10T19:23:39.418Z,4.22
2019-02-10T19:26:30.624Z,4.20
2019-02-10T19:29:17.367Z,4.13
2019-02-10T19:31:53.589Z,4.07
2019-02-10T19:34:40.147Z,4.06
2019-02-10T19:37:37.084Z,4.08
2019-02-10T19:40:23.953Z,4.01
2019-02-10T19:43:08.404Z,4.04
2019-02-10T19:45:49.096Z,4.06
2019-02-10T19:48:31.593Z,4.01
2019-02-10T19:51:19.679Z,3.96
2019-02-10T19:53:58.288Z,3.91
2019-02-10T19:56:55.610Z,3.88
2019-02-10T19:59:46.898Z,3.82
2019-02-10T20:02:33.748Z,3.75
2019-02-10T20:05:19.084Z,3.72
2019-02-10T20:08:00.343Z,3.66
2019-02-10T20:11:00.661Z,3.67
2019-02-10T20:13:44.872Z,3.65
2019-02-10T20:16:32.970Z,3.69
2019-02-10T20:19:16.584Z,3.70
2019-02-10T20:21:58.915Z,3.69
2019-02-10T20:24:54.178Z,3.69
2019-02-10T20:27:48.301Z,3.70
2019-02-10T20:30:34.147Z,3.70
2019-02-10T20:33:20.476Z,3.65
2019-02-10T20:35:56.713Z,3.65
2019-02-10T20:38:43.228Z,3.70
2019-02-10T20:41:27.866Z,3.74
2019-02-10T20:44:14.398Z,3.74
2019-02-10T20:46:50.472Z,3.77
2019-02-10T20:49:30.718Z,3.78
2019-02-10T20:52:30.771Z,3.76
2019-02-10T20:55:18.883Z,3.80
2019-02-10T20:58:04.336Z,3.72
2019-02-10T21:00:51.116Z,3.74
2019-02-10T21:03:42.258Z,3.67
2019-02-10T21:06:48.595Z,3.64
2019-02-10T21:09:24.132Z,3.66
2019-02-10T21:12:21.323Z,3.64
2019-02-10T21:15:21.356Z,3.62
2019-02-10T21:18:03.450Z,3.58
2019-02-10T21:20:43.270Z,3.52
2019-02-10T21:23:22.695Z,3.49
2019-02-10T21:26:09.414Z,3.52
2019-02-10T21:28:54.645Z,3.50
2019-02-10T21:31:40.962Z,3.52
2019-02-10T21:34:35.184Z,3.51
2019-02-10T21:37:29.144Z,3.51
2019-02-10T21:40:08.517Z,3.43
2019-02-10T21:42:56.632Z,3.39
2019-02-10T21:45:31.456Z,3.37
2019-02-10T21:48:05.643Z,3.46
2019-02-10T21:50:34.794Z,3.39
2019-02-10T21:53:03.960Z,3.31
2019-02-10T21:55:33.102Z,3.28
2019-02-10T21:58:03.258Z,3.24
2019-02-10T22:00:32.412Z,3.24
2019-02-10T22:03:01.571Z,3.22
2019-02-10T22:05:30.725Z,3.17
2019-02-10T22:07:59.839Z,3.15
2019-02-10T22:10:28.932Z,3.17
2019-02-10T22:12:58.094Z,3.17
2019-02-10T22:15:27.176Z,3.11
2019-02-10T22:17:56.301Z,3.13
2019-02-10T22:20:25.398Z,3.14
2019-02-10T22:22:54.520Z,3.10
2019-02-10T22:25:23.715Z,3.07
2019-02-10T22:27:52.815Z,3.11
2019-02-10T22:30:21.921Z,3.18
2019-02-10T22:32:51.019Z,3.06
2019-02-10T22:35:20.098Z,2.97
2019-02-10T22:37:49.198Z,2.95
2019-02-10T22:40:18.277Z,2.93
2019-02-10T22:42:47.354Z,2.97
2019-02-10T22:45:16.453Z,2.95
2019-02-10T22:47:45.795Z,2.92
2019-02-10T22:50:14.906Z,2.89
2019-02-10T22:52:43.988Z,2.86
2019-02-10T22:55:13.100Z,2.89
2019-02-10T22:57:42.150Z,2.92
2019-02-10T23:01:01.479Z,2.88
2019-02-10T23:03:30.588Z,2.84
2019-02-10T23:05:59.695Z,2.82
2019-02-10T23:08:28.790Z,2.81
2019-02-10T23:10:58.094Z,2.82
2019-02-10T23:13:27.178Z,2.84
2019-02-10T23:15:56.278Z,2.81
2019-02-10T23:18:25.348Z,2.83
2019-02-10T23:20:54.452Z,2.81
2019-02-10T23:23:23.531Z,2.79
2019-02-10T23:25:52.629Z,2.76
2019-02-10T23:28:21.706Z,2.74
2019-02-10T23:30:50.807Z,2.76
2019-02-10T23:33:19.892Z,2.76
2019-02-10T23:35:48.992Z,2.73
2019-02-10T23:38:18.073Z,2.75
2019-02-10T23:40:47.177Z,2.74
2019-02-10T23:43:16.254Z,2.73
2019-02-10T23:45:45.353Z,2.74
2019-02-10T23:48:14.427Z,2.70
2019-02-10T23:50:43.522Z,2.73
2019-02-10T23:53:12.597Z,2.72
2019-02-10T23:55:41.695Z,2.68
2019-02-10T23:58:10.773Z,2.64
